Time;durP1;ratioP1;P1;durP2;ratioP2;P2;SDS_P1;SDS_P2;PMS_P1;PMS_P2;Temp;Humidity;BMP_temperature;BMP_pressure;BME280_temperature;BME280_humidity;BME280_pressure;Samples;Min_cycle;Max_cycle;Signal;HPM_P1;HPM_P2
2023/12/05 00:00:14;;;;;;;14.77;7.00;;;;;;;;;;5083717;28;20055;-66
2023/12/05 00:02:41;;;;;;;13.35;6.18;;;;;;;;;;5105051;28;20050;-67
2023/12/05 00:05:09;;;;;;;13.77;6.90;;;;;;;;;;5102777;28;20607;-66
2023/12/05 00:07:38;;;;;;;13.10;6.85;;;;;;;;;;5106314;28;20036;-66
2023/12/05 00:10:06;;;;;;;15.02;7.45;;;;;;;;;;5104273;28;20525;-66
2023/12/05 00:12:33;;;;;;;18.65;7.68;;;;;;;;;;5104061;28;20120;-66
2023/12/05 00:15:00;;;;;;;13.32;6.60;;;;;;;;;;5103901;28;20047;-67
2023/12/05 00:17:27;;;;;;;15.23;6.65;;;;;;;;;;5105735;28;20070;-66
2023/12/05 00:19:56;;;;;;;17.10;7.38;;;;;;;;;;5105080;28;20097;-66
2023/12/05 00:22:24;;;;;;;15.98;7.43;;;;;;;;;;5110944;28;20115;-66
2023/12/05 00:24:53;;;;;;;16.90;7.28;;;;;;;;;;5092101;28;20062;-66
2023/12/05 00:27:20;;;;;;;16.35;7.28;;;;;;;;;;5105802;28;20062;-67
2023/12/05 00:29:48;;;;;;;14.73;7.57;;;;;;;;;;5108842;28;20054;-66
2023/12/05 00:32:15;;;;;;;18.85;8.05;;;;;;;;;;5093487;28;20384;-65
2023/12/05 00:34:42;;;;;;;17.08;7.50;;;;;;;;;;5111215;28;20043;-66
2023/12/05 00:37:09;;;;;;;14.75;7.20;;;;;;;;;;5107963;28;20079;-66
2023/12/05 00:39:37;;;;;;;16.67;8.07;;;;;;;;;;5108849;28;20047;-66
2023/12/05 00:42:05;;;;;;;16.00;8.00;;;;;;;;;;5107261;28;20350;-66
2023/12/05 00:44:33;;;;;;;16.50;7.53;;;;;;;;;;5109287;28;20050;-66
2023/12/05 00:47:03;;;;;;;14.80;7.30;;;;;;;;;;5105469;28;20075;-66
2023/12/05 00:49:31;;;;;;;16.70;8.15;;;;;;;;;;5091132;28;20054;-66
2023/12/05 00:51:58;;;;;;;16.70;8.13;;;;;;;;;;5107224;28;20054;-66
2023/12/05 00:54:25;;;;;;;18.30;8.60;;;;;;;;;;5108236;28;20052;-66
2023/12/05 00:56:53;;;;;;;17.20;8.40;;;;;;;;;;5104830;28;20499;-66
2023/12/05 00:59:21;;;;;;;17.50;7.85;;;;;;;;;;5107403;28;20044;-67
2023/12/05 01:01:49;;;;;;;18.40;8.35;;;;;;;;;;5107910;28;20051;-66
2023/12/05 01:04:17;;;;;;;19.27;8.13;;;;;;;;;;5091219;28;20059;-66
2023/12/05 01:06:44;;;;;;;18.92;8.68;;;;;;;;;;5109065;28;20077;-66
2023/12/05 01:09:12;;;;;;;16.65;8.38;;;;;;;;;;5101684;28;20089;-66
2023/12/05 01:11:39;;;;;;;18.00;9.35;;;;;;;;;;5108211;28;20039;-66
2023/12/05 01:14:06;;;;;;;19.85;8.32;;;;;;;;;;5098988;28;20086;-66
2023/12/05 01:16:35;;;;;;;17.80;8.43;;;;;;;;;;5107135;28;20491;-66
2023/12/05 01:19:02;;;;;;;19.88;8.90;;;;;;;;;;5104201;28;20444;-66
2023/12/05 01:21:30;;;;;;;22.80;9.50;;;;;;;;;;5096384;28;20101;-66
2023/12/05 01:23:57;;;;;;;20.83;9.50;;;;;;;;;;5109711;28;20050;-66
2023/12/05 01:26:24;;;;;;;19.58;8.90;;;;;;;;;;5107142;28;20055;-66
2023/12/05 01:28:51;;;;;;;23.40;9.10;;;;;;;;;;5101082;28;20495;-66
2023/12/05 01:31:19;;;;;;;19.38;9.10;;;;;;;;;;5092162;28;20093;-66
2023/12/05 01:33:47;;;;;;;15.35;8.20;;;;;;;;;;5107711;28;20135;-66
2023/12/05 01:36:16;;;;;;;20.17;9.00;;;;;;;;;;5108632;28;20043;-66
2023/12/05 01:38:43;;;;;;;19.20;8.75;;;;;;;;;;5105175;28;20048;-66
2023/12/05 01:41:10;;;;;;;19.25;8.98;;;;;;;;;;5110407;28;20520;-65
2023/12/05 01:43:37;;;;;;;23.98;9.60;;;;;;;;;;5109164;28;20046;-65
2023/12/05 01:46:05;;;;;;;20.80;8.82;;;;;;;;;;5105317;28;20494;-66
2023/12/05 01:48:34;;;;;;;15.23;8.55;;;;;;;;;;5106850;28;20043;-66
2023/12/05 01:51:03;;;;;;;18.20;8.82;;;;;;;;;;5106839;28;20379;-66
2023/12/05 01:53:32;;;;;;;17.95;8.63;;;;;;;;;;5108233;28;20047;-66
2023/12/05 01:55:59;;;;;;;18.75;8.80;;;;;;;;;;5105492;28;20402;-66
2023/12/05 01:58:27;;;;;;;18.23;9.13;;;;;;;;;;5104368;28;20047;-66
2023/12/05 02:00:55;;;;;;;19.52;8.63;;;;;;;;;;5109465;28;20051;-66
2023/12/05 02:03:22;;;;;;;16.65;8.88;;;;;;;;;;5104354;28;20043;-66
2023/12/05 02:05:49;;;;;;;18.48;9.43;;;;;;;;;;5104600;28;20398;-66
2023/12/05 02:08:18;;;;;;;18.50;9.38;;;;;;;;;;5102197;28;20059;-66
2023/12/05 02:10:46;;;;;;;18.75;9.80;;;;;;;;;;5098996;28;20055;-65
2023/12/05 02:13:14;;;;;;;25.48;9.77;;;;;;;;;;5108757;28;20052;-65
2023/12/05 02:15:41;;;;;;;25.58;10.32;;;;;;;;;;5109042;28;20055;-66
2023/12/05 02:18:12;;;;;;;20.75;10.05;;;;;;;;;;5109233;28;20048;-66
2023/12/05 02:20:43;;;;;;;21.55;9.80;;;;;;;;;;5106145;28;20039;-66
2023/12/05 02:23:37;;;;;;;22.80;10.77;;;;;;;;;;5104399;28;20044;-66
2023/12/05 02:26:13;;;;;;;21.95;10.20;;;;;;;;;;5103150;28;20047;-66
2023/12/05 02:28:42;;;;;;;22.42;10.48;;;;;;;;;;5108460;28;20399;-65
2023/12/05 02:31:10;;;;;;;20.67;10.38;;;;;;;;;;5105254;28;20185;-66
2023/12/05 02:33:38;;;;;;;21.85;10.52;;;;;;;;;;5108577;28;20044;-66
2023/12/05 02:36:10;;;;;;;20.15;10.05;;;;;;;;;;5106531;28;20096;-66
2023/12/05 02:38:41;;;;;;;22.85;10.38;;;;;;;;;;5108502;28;20048;-66
2023/12/05 02:41:10;;;;;;;26.48;10.55;;;;;;;;;;5090179;28;20066;-65
2023/12/05 02:43:38;;;;;;;21.90;10.32;;;;;;;;;;5098810;28;20046;-66
2023/12/05 02:46:10;;;;;;;23.17;11.20;;;;;;;;;;5104581;28;20052;-66
2023/12/05 02:48:38;;;;;;;22.60;9.95;;;;;;;;;;5092050;28;20135;-66
2023/12/05 02:51:05;;;;;;;23.30;11.35;;;;;;;;;;5100037;28;20479;-66
2023/12/05 02:53:32;;;;;;;22.85;10.90;;;;;;;;;;5104589;28;20540;-66
2023/12/05 02:55:59;;;;;;;26.83;11.25;;;;;;;;;;5106451;28;20039;-66
2023/12/05 02:58:27;;;;;;;26.02;10.73;;;;;;;;;;5099559;28;20233;-66
2023/12/05 03:00:54;;;;;;;25.73;11.02;;;;;;;;;;5100096;28;20054;-66
2023/12/05 03:03:22;;;;;;;22.10;10.27;;;;;;;;;;5103791;28;21903;-65
2023/12/05 03:05:50;;;;;;;24.33;10.98;;;;;;;;;;5107817;28;20379;-66
2023/12/05 03:08:17;;;;;;;23.33;10.93;;;;;;;;;;5106533;28;20047;-67
2023/12/05 03:10:44;;;;;;;22.73;10.52;;;;;;;;;;5106051;28;20047;-66
2023/12/05 03:13:11;;;;;;;22.75;10.68;;;;;;;;;;5106144;28;20054;-66
2023/12/05 03:15:39;;;;;;;23.63;10.45;;;;;;;;;;5097904;28;20048;-66
2023/12/05 03:18:06;;;;;;;24.95;11.57;;;;;;;;;;5105908;28;20059;-65
2023/12/05 03:20:35;;;;;;;22.40;10.73;;;;;;;;;;5100304;28;20048;-66
2023/12/05 03:23:02;;;;;;;21.60;10.10;;;;;;;;;;5103798;28;20553;-66
2023/12/05 03:25:29;;;;;;;23.33;11.10;;;;;;;;;;5089313;28;20051;-66
2023/12/05 03:27:57;;;;;;;20.35;9.65;;;;;;;;;;5101054;28;20059;-65
2023/12/05 03:30:24;;;;;;;23.00;10.73;;;;;;;;;;5108684;28;20078;-66
2023/12/05 03:32:51;;;;;;;25.95;11.63;;;;;;;;;;5099922;28;20051;-65
2023/12/05 03:35:18;;;;;;;22.27;10.25;;;;;;;;;;5105944;28;20053;-66
2023/12/05 03:37:47;;;;;;;25.05;11.07;;;;;;;;;;5102581;28;20053;-66
2023/12/05 03:40:14;;;;;;;22.42;11.20;;;;;;;;;;5101718;28;20039;-66
2023/12/05 03:42:41;;;;;;;22.77;11.02;;;;;;;;;;5102445;28;20052;-66
2023/12/05 03:45:09;;;;;;;24.77;11.57;;;;;;;;;;5104396;28;20497;-66
2023/12/05 03:47:36;;;;;;;23.13;11.13;;;;;;;;;;5103915;28;20525;-64
2023/12/05 03:50:04;;;;;;;26.17;10.85;;;;;;;;;;5099771;28;20036;-66
2023/12/05 03:52:31;;;;;;;22.50;11.13;;;;;;;;;;5103004;28;20414;-66
2023/12/05 03:55:00;;;;;;;24.35;11.05;;;;;;;;;;5106793;28;20486;-65
2023/12/05 03:57:27;;;;;;;25.25;10.93;;;;;;;;;;5105721;28;20505;-66
2023/12/05 03:59:55;;;;;;;21.42;11.13;;;;;;;;;;5109284;28;20050;-66
2023/12/05 04:02:22;;;;;;;23.17;11.10;;;;;;;;;;5112093;28;20394;-66
2023/12/05 04:04:49;;;;;;;24.80;11.40;;;;;;;;;;5104710;28;20044;-67
2023/12/05 04:07:16;;;;;;;23.75;10.65;;;;;;;;;;5091713;28;20070;-66
2023/12/05 04:09:43;;;;;;;24.10;10.77;;;;;;;;;;5110971;28;20044;-66
2023/12/05 04:12:12;;;;;;;23.60;10.50;;;;;;;;;;5109241;28;20503;-66
2023/12/05 04:14:40;;;;;;;23.52;11.45;;;;;;;;;;5108985;28;20493;-66
2023/12/05 04:17:07;;;;;;;22.55;10.52;;;;;;;;;;5109777;28;20055;-66
2023/12/05 04:19:35;;;;;;;26.27;11.23;;;;;;;;;;5105401;28;20058;-65
2023/12/05 04:22:02;;;;;;;25.25;10.88;;;;;;;;;;5111130;28;20509;-66
2023/12/05 04:24:29;;;;;;;24.10;11.18;;;;;;;;;;5105936;28;20494;-66
2023/12/05 04:26:56;;;;;;;22.60;10.35;;;;;;;;;;5109586;28;20044;-65
2023/12/05 04:29:25;;;;;;;26.30;11.82;;;;;;;;;;5104981;28;20051;-66
2023/12/05 04:31:52;;;;;;;23.17;11.15;;;;;;;;;;5111174;28;20044;-65
2023/12/05 04:34:19;;;;;;;27.40;11.18;;;;;;;;;;5110089;28;20398;-66
2023/12/05 04:36:47;;;;;;;20.85;10.60;;;;;;;;;;5092833;28;20051;-66
2023/12/05 04:39:14;;;;;;;25.17;10.80;;;;;;;;;;5107076;28;20063;-66
2023/12/05 04:41:41;;;;;;;23.48;11.30;;;;;;;;;;5090081;28;20047;-66
2023/12/05 04:44:08;;;;;;;21.73;11.00;;;;;;;;;;5108493;28;20058;-66
2023/12/05 04:46:38;;;;;;;24.20;11.32;;;;;;;;;;5107127;28;20048;-66
2023/12/05 04:49:06;;;;;;;27.52;12.32;;;;;;;;;;5105455;28;20040;-66
2023/12/05 04:51:33;;;;;;;22.58;11.45;;;;;;;;;;5085246;28;20060;-66
2023/12/05 04:54:01;;;;;;;23.08;11.63;;;;;;;;;;5103568;28;20137;-66
2023/12/05 04:56:28;;;;;;;24.92;11.30;;;;;;;;;;5102748;28;20050;-66
2023/12/05 04:58:55;;;;;;;23.20;10.90;;;;;;;;;;5087115;28;20055;-66
2023/12/05 05:01:22;;;;;;;27.10;15.10;;;;;;;;;;5107079;28;20048;-66
2023/12/05 05:03:51;;;;;;;25.20;11.55;;;;;;;;;;5106101;28;20062;-66
2023/12/05 05:06:18;;;;;;;24.30;11.45;;;;;;;;;;5107593;28;20054;-66
2023/12/05 05:08:45;;;;;;;25.42;11.68;;;;;;;;;;5107710;28;20043;-66
2023/12/05 05:11:13;;;;;;;23.63;11.30;;;;;;;;;;5106879;28;20043;-64
2023/12/05 05:13:40;;;;;;;21.77;11.25;;;;;;;;;;5102723;28;20058;-65
2023/12/05 05:16:08;;;;;;;24.25;11.25;;;;;;;;;;5100035;28;20048;-66
2023/12/05 05:18:37;;;;;;;24.17;10.90;;;;;;;;;;5108782;28;20491;-66
2023/12/05 05:21:06;;;;;;;24.02;11.50;;;;;;;;;;5100461;28;20039;-65
2023/12/05 05:23:33;;;;;;;27.67;11.95;;;;;;;;;;5106809;28;20047;-66
2023/12/05 05:26:00;;;;;;;24.05;10.13;;;;;;;;;;5110474;28;20417;-66
2023/12/05 05:28:28;;;;;;;23.35;10.27;;;;;;;;;;5109416;28;20421;-66
2023/12/05 05:30:55;;;;;;;24.48;10.48;;;;;;;;;;5104638;28;20130;-66
2023/12/05 05:33:22;;;;;;;26.02;11.30;;;;;;;;;;5089459;28;20055;-65
2023/12/05 05:35:49;;;;;;;26.73;11.48;;;;;;;;;;5104060;28;20985;-66
2023/12/05 05:38:18;;;;;;;22.45;10.57;;;;;;;;;;5090002;28;20048;-66
2023/12/05 05:40:45;;;;;;;24.17;10.73;;;;;;;;;;5102524;28;20058;-67
2023/12/05 05:43:13;;;;;;;27.50;11.40;;;;;;;;;;5108548;28;20496;-66
2023/12/05 05:45:40;;;;;;;24.77;11.48;;;;;;;;;;5087071;28;20052;-65
2023/12/05 05:48:07;;;;;;;23.92;11.18;;;;;;;;;;5089135;28;20490;-66
2023/12/05 05:50:36;;;;;;;27.23;11.68;;;;;;;;;;5104678;28;20047;-66
2023/12/05 05:53:03;;;;;;;25.77;11.48;;;;;;;;;;5105581;28;20074;-66
2023/12/05 05:55:32;;;;;;;26.67;11.25;;;;;;;;;;5107429;28;20048;-65
2023/12/05 05:57:59;;;;;;;22.75;10.48;;;;;;;;;;5107181;28;20180;-66
2023/12/05 06:00:26;;;;;;;23.58;10.57;;;;;;;;;;5096671;28;20093;-66
2023/12/05 06:02:54;;;;;;;23.88;11.63;;;;;;;;;;5107173;28;20086;-65
2023/12/05 06:05:21;;;;;;;26.88;11.52;;;;;;;;;;5091172;28;20046;-66
2023/12/05 06:07:48;;;;;;;25.35;11.23;;;;;;;;;;5102753;28;20056;-66
2023/12/05 06:10:16;;;;;;;26.95;11.13;;;;;;;;;;5095734;28;20467;-66
2023/12/05 06:12:44;;;;;;;23.08;10.88;;;;;;;;;;5102317;28;20035;-66
2023/12/05 06:15:12;;;;;;;25.27;11.07;;;;;;;;;;5105230;28;20054;-65
2023/12/05 06:17:39;;;;;;;28.67;13.45;;;;;;;;;;5106832;28;20063;-66
2023/12/05 06:20:08;;;;;;;23.33;10.13;;;;;;;;;;5104241;28;20047;-66
2023/12/05 06:22:35;;;;;;;22.48;10.93;;;;;;;;;;5109330;28;20074;-66
2023/12/05 06:25:03;;;;;;;25.63;11.32;;;;;;;;;;5107068;27;20048;-66
2023/12/05 06:27:30;;;;;;;26.02;12.77;;;;;;;;;;5108239;28;20521;-65
2023/12/05 06:29:59;;;;;;;24.73;11.77;;;;;;;;;;5105836;28;20104;-66
2023/12/05 06:32:26;;;;;;;26.17;11.75;;;;;;;;;;5107764;28;20124;-66
2023/12/05 06:34:53;;;;;;;23.75;10.77;;;;;;;;;;5101328;28;20051;-66
2023/12/05 06:37:21;;;;;;;25.35;10.52;;;;;;;;;;5085157;28;20058;-64
2023/12/05 06:39:48;;;;;;;24.17;10.82;;;;;;;;;;5094833;28;20518;-66
2023/12/05 06:42:15;;;;;;;20.25;10.27;;;;;;;;;;5098800;28;20047;-66
2023/12/05 06:44:43;;;;;;;24.38;10.25;;;;;;;;;;5102729;28;20079;-66
2023/12/05 06:47:12;;;;;;;22.63;10.85;;;;;;;;;;5095804;28;20526;-66
2023/12/05 06:49:39;;;;;;;25.40;11.20;;;;;;;;;;5098430;28;20056;-66
2023/12/05 06:52:08;;;;;;;23.95;10.40;;;;;;;;;;5105328;28;20047;-66
2023/12/05 06:54:35;;;;;;;23.27;10.73;;;;;;;;;;5101370;28;20455;-66
2023/12/05 06:57:03;;;;;;;22.30;10.63;;;;;;;;;;5107627;28;20069;-66
2023/12/05 06:59:30;;;;;;;21.48;9.90;;;;;;;;;;5103280;28;20483;-66
2023/12/05 07:01:57;;;;;;;24.42;11.73;;;;;;;;;;5107848;28;20055;-66
2023/12/05 07:04:26;;;;;;;24.38;10.80;;;;;;;;;;5107759;28;20073;-66
2023/12/05 07:06:53;;;;;;;24.10;10.85;;;;;;;;;;5108006;28;20509;-65
2023/12/05 07:09:21;;;;;;;27.30;11.20;;;;;;;;;;5105868;28;20043;-67
2023/12/05 07:11:48;;;;;;;27.55;11.35;;;;;;;;;;5106810;28;20047;-65
2023/12/05 07:14:15;;;;;;;25.00;11.20;;;;;;;;;;5103649;28;20356;-66
2023/12/05 07:16:42;;;;;;;25.88;10.52;;;;;;;;;;5104953;28;20043;-66
2023/12/05 07:19:10;;;;;;;25.15;10.82;;;;;;;;;;5106465;28;20068;-66
2023/12/05 07:21:38;;;;;;;23.52;10.93;;;;;;;;;;5088925;28;20053;-65
2023/12/05 07:24:06;;;;;;;21.30;10.48;;;;;;;;;;5096394;28;20043;-66
2023/12/05 07:26:33;;;;;;;24.10;10.30;;;;;;;;;;5101972;28;20051;-66
2023/12/05 07:29:01;;;;;;;22.08;10.30;;;;;;;;;;5102385;28;20056;-66
2023/12/05 07:31:28;;;;;;;23.08;10.20;;;;;;;;;;5104977;28;20131;-66
2023/12/05 07:33:57;;;;;;;22.83;10.40;;;;;;;;;;5104690;28;20047;-66
2023/12/05 07:36:24;;;;;;;22.90;10.55;;;;;;;;;;5104592;28;20048;-66
2023/12/05 07:38:53;;;;;;;23.48;10.27;;;;;;;;;;5103818;28;20051;-66
2023/12/05 07:41:21;;;;;;;25.45;10.52;;;;;;;;;;5099270;28;20054;-67
2023/12/05 07:43:49;;;;;;;21.65;10.38;;;;;;;;;;5103413;28;20425;-66
2023/12/05 07:46:16;;;;;;;24.13;10.65;;;;;;;;;;5103020;28;20047;-66
2023/12/05 07:48:44;;;;;;;21.33;10.20;;;;;;;;;;5090682;28;20051;-66
2023/12/05 07:51:16;;;;;;;20.15;10.05;;;;;;;;;;5097074;28;20079;-65
2023/12/05 07:53:43;;;;;;;22.95;10.15;;;;;;;;;;5104619;28;20050;-66
2023/12/05 07:56:12;;;;;;;23.92;10.52;;;;;;;;;;5100837;28;20494;-66
2023/12/05 07:58:39;;;;;;;25.05;11.07;;;;;;;;;;5104247;28;20395;-65
2023/12/05 08:01:07;;;;;;;26.55;10.68;;;;;;;;;;5105345;28;20048;-66
2023/12/05 08:03:34;;;;;;;20.15;9.55;;;;;;;;;;5104179;28;20483;-66
2023/12/05 08:06:02;;;;;;;21.88;10.10;;;;;;;;;;5103966;28;20541;-66
2023/12/05 08:08:31;;;;;;;21.90;9.88;;;;;;;;;;5100769;28;20459;-66
2023/12/05 08:10:58;;;;;;;21.33;9.75;;;;;;;;;;5105648;28;20055;-66
2023/12/05 08:13:27;;;;;;;23.10;10.18;;;;;;;;;;5100797;28;20055;-66
2023/12/05 08:15:54;;;;;;;24.50;10.05;;;;;;;;;;5100636;28;20062;-66
2023/12/05 08:18:21;;;;;;;20.25;9.93;;;;;;;;;;5103599;28;20055;-66
2023/12/05 08:20:49;;;;;;;24.35;10.23;;;;;;;;;;5100570;28;20067;-66
2023/12/05 08:23:16;;;;;;;22.10;10.45;;;;;;;;;;5102511;28;20048;-65
2023/12/05 08:25:43;;;;;;;25.27;9.85;;;;;;;;;;5103197;28;20464;-65
2023/12/05 08:28:11;;;;;;;20.40;9.38;;;;;;;;;;5102659;28;20494;-66
2023/12/05 08:30:41;;;;;;;21.52;10.13;;;;;;;;;;5097123;28;20048;-66
2023/12/05 08:33:08;;;;;;;25.65;9.93;;;;;;;;;;5103681;28;20056;-65
2023/12/05 08:35:36;;;;;;;20.40;9.73;;;;;;;;;;5104110;28;20052;-66
2023/12/05 08:38:03;;;;;;;21.58;10.23;;;;;;;;;;5103989;28;20580;-65
2023/12/05 08:40:31;;;;;;;21.55;10.20;;;;;;;;;;5102231;28;20036;-66
2023/12/05 08:42:58;;;;;;;22.67;10.15;;;;;;;;;;5106981;28;20079;-66
2023/12/05 08:45:25;;;;;;;22.00;9.80;;;;;;;;;;5106511;28;20376;-65
2023/12/05 08:47:55;;;;;;;25.70;9.75;;;;;;;;;;5102813;28;20130;-65
2023/12/05 08:50:22;;;;;;;19.45;9.65;;;;;;;;;;5093918;28;20446;-65
2023/12/05 08:52:49;;;;;;;22.73;10.15;;;;;;;;;;5096336;28;20043;-66
2023/12/05 08:55:17;;;;;;;20.63;10.02;;;;;;;;;;5096165;28;20048;-66
2023/12/05 08:57:44;;;;;;;19.10;9.70;;;;;;;;;;5105347;28;20039;-65
2023/12/05 09:00:12;;;;;;;24.42;11.27;;;;;;;;;;5107940;28;20051;-66
2023/12/05 09:02:39;;;;;;;20.67;9.90;;;;;;;;;;5108746;28;20044;-66
2023/12/05 09:05:08;;;;;;;23.85;10.48;;;;;;;;;;5088951;28;20047;-66
2023/12/05 09:07:35;;;;;;;21.05;9.80;;;;;;;;;;5107096;28;20043;-67
2023/12/05 09:10:02;;;;;;;22.27;10.13;;;;;;;;;;5103224;28;20051;-65
2023/12/05 09:12:30;;;;;;;22.17;10.55;;;;;;;;;;5110962;28;20150;-66
2023/12/05 09:14:57;;;;;;;23.08;10.90;;;;;;;;;;5109580;28;20052;-66
2023/12/05 09:17:24;;;;;;;21.88;10.02;;;;;;;;;;5107330;28;20414;-65
2023/12/05 09:19:51;;;;;;;22.88;9.95;;;;;;;;;;5109044;28;20048;-66
2023/12/05 09:22:20;;;;;;;21.52;10.32;;;;;;;;;;5110485;28;20553;-65
2023/12/05 09:24:48;;;;;;;21.65;10.57;;;;;;;;;;5106857;28;20051;-67
2023/12/05 09:27:15;;;;;;;23.77;11.18;;;;;;;;;;5106582;28;20054;-65
2023/12/05 09:29:43;;;;;;;22.05;10.15;;;;;;;;;;5100617;28;20371;-66
2023/12/05 09:32:10;;;;;;;22.50;11.02;;;;;;;;;;5101617;28;20534;-66
2023/12/05 09:34:37;;;;;;;23.60;10.40;;;;;;;;;;5103092;28;20040;-65
2023/12/05 09:37:04;;;;;;;21.63;10.77;;;;;;;;;;5100124;28;20047;-65
2023/12/05 09:39:33;;;;;;;22.70;10.20;;;;;;;;;;5109611;28;20050;-66
2023/12/05 09:42:04;;;;;;;20.15;10.75;;;;;;;;;;5110652;28;20047;-66
2023/12/05 09:44:32;;;;;;;22.08;10.98;;;;;;;;;;5109119;28;20052;-66
2023/12/05 09:47:01;;;;;;;21.58;10.48;;;;;;;;;;5110282;28;20051;-66
2023/12/05 09:49:29;;;;;;;24.27;11.18;;;;;;;;;;5108322;28;20051;-65
2023/12/05 09:51:56;;;;;;;26.15;11.60;;;;;;;;;;5103490;28;20097;-66
2023/12/05 09:54:25;;;;;;;26.98;10.35;;;;;;;;;;5104066;28;20052;-64
2023/12/05 09:56:55;;;;;;;27.02;10.98;;;;;;;;;;5101877;28;20051;-65
2023/12/05 09:59:23;;;;;;;25.38;11.38;;;;;;;;;;5102125;28;20498;-65
2023/12/05 10:01:51;;;;;;;22.48;10.90;;;;;;;;;;5110393;28;20047;-66
2023/12/05 10:04:19;;;;;;;20.42;10.20;;;;;;;;;;5109008;28;20047;-66
2023/12/05 10:06:46;;;;;;;25.52;11.00;;;;;;;;;;5100697;28;20062;-65
2023/12/05 10:09:16;;;;;;;23.50;10.63;;;;;;;;;;5106640;28;20044;-65
2023/12/05 10:11:43;;;;;;;23.50;11.23;;;;;;;;;;5103066;28;20073;-66
2023/12/05 10:14:12;;;;;;;22.00;10.70;;;;;;;;;;5108244;28;20055;-66
2023/12/05 10:16:39;;;;;;;23.45;10.82;;;;;;;;;;5107896;28;20043;-66
2023/12/05 10:19:08;;;;;;;21.73;10.93;;;;;;;;;;5097062;28;20122;-66
2023/12/05 10:21:35;;;;;;;22.55;10.90;;;;;;;;;;5103598;28;20040;-65
2023/12/05 10:24:03;;;;;;;23.48;11.55;;;;;;;;;;5100058;28;20044;-66
2023/12/05 10:26:30;;;;;;;17.48;9.93;;;;;;;;;;5108579;28;20647;-66
2023/12/05 10:28:57;;;;;;;21.52;9.48;;;;;;;;;;5101676;28;20044;-66
2023/12/05 10:31:26;;;;;;;19.42;9.98;;;;;;;;;;5108362;28;20054;-65
2023/12/05 10:34:04;;;;;;;19.27;9.60;;;;;;;;;;5099700;28;20043;-66
2023/12/05 10:36:31;;;;;;;21.70;11.10;;;;;;;;;;5105560;28;20074;-65
2023/12/05 10:38:59;;;;;;;19.98;9.75;;;;;;;;;;5101222;28;20048;-66
2023/12/05 10:41:28;;;;;;;18.55;9.55;;;;;;;;;;5104768;28;20125;-65
2023/12/05 10:43:56;;;;;;;20.27;9.85;;;;;;;;;;5077803;28;20384;-66
2023/12/05 10:46:26;;;;;;;19.10;10.15;;;;;;;;;;5099568;28;20559;-65
2023/12/05 10:48:54;;;;;;;20.55;10.18;;;;;;;;;;5096419;28;20502;-66
2023/12/05 10:51:21;;;;;;;19.45;9.95;;;;;;;;;;5102981;28;20043;-66
2023/12/05 10:53:48;;;;;;;20.67;10.10;;;;;;;;;;5108064;28;20406;-66
2023/12/05 10:56:16;;;;;;;19.58;9.90;;;;;;;;;;5098816;28;20526;-66
2023/12/05 10:58:44;;;;;;;21.10;9.90;;;;;;;;;;5100750;28;20051;-66
2023/12/05 11:01:11;;;;;;;21.48;9.48;;;;;;;;;;5104953;28;20506;-66
2023/12/05 11:03:40;;;;;;;20.67;9.73;;;;;;;;;;5104427;28;20047;-66
2023/12/05 11:06:08;;;;;;;18.80;10.38;;;;;;;;;;5105255;28;20043;-66
2023/12/05 11:08:35;;;;;;;20.10;9.93;;;;;;;;;;5101137;28;20047;-66
2023/12/05 11:11:03;;;;;;;22.23;11.00;;;;;;;;;;5100617;28;20043;-66
2023/12/05 11:13:31;;;;;;;20.25;9.90;;;;;;;;;;5101922;28;20491;-66
2023/12/05 11:16:01;;;;;;;19.50;9.95;;;;;;;;;;5085407;28;20134;-66
2023/12/05 11:18:34;;;;;;;22.75;10.45;;;;;;;;;;5097888;28;20510;-66
2023/12/05 11:21:06;;;;;;;22.42;10.30;;;;;;;;;;5103639;28;20047;-66
2023/12/05 11:23:45;;;;;;;19.15;10.10;;;;;;;;;;5108590;28;20047;-66
2023/12/05 11:26:22;;;;;;;20.92;10.40;;;;;;;;;;5105035;28;20139;-66
2023/12/05 11:28:58;;;;;;;20.00;10.45;;;;;;;;;;5100279;28;20457;-66
2023/12/05 11:31:27;;;;;;;22.17;10.27;;;;;;;;;;5099200;28;20124;-66
2023/12/05 11:34:13;;;;;;;26.10;10.45;;;;;;;;;;5106017;28;20434;-66
2023/12/05 11:36:50;;;;;;;23.10;10.60;;;;;;;;;;5102632;28;20047;-66
2023/12/05 11:39:17;;;;;;;22.77;10.68;;;;;;;;;;5097692;28;20105;-66
2023/12/05 11:42:07;;;;;;;21.08;10.82;;;;;;;;;;5083355;28;20039;-66
2023/12/05 11:44:36;;;;;;;19.50;10.23;;;;;;;;;;5096178;28;20047;-66
2023/12/05 11:47:04;;;;;;;20.25;10.73;;;;;;;;;;5100293;28;20048;-66
2023/12/05 11:49:48;;;;;;;22.75;11.05;;;;;;;;;;5098162;28;20043;-66
2023/12/05 11:52:17;;;;;;;19.58;10.35;;;;;;;;;;5107746;28;20433;-65
2023/12/05 11:54:44;;;;;;;22.88;10.88;;;;;;;;;;5104377;28;20048;-66
2023/12/05 11:57:13;;;;;;;20.35;11.13;;;;;;;;;;5099721;28;20056;-66
2023/12/05 11:59:40;;;;;;;21.27;11.55;;;;;;;;;;5102561;28;20168;-66
2023/12/05 12:02:08;;;;;;;22.75;11.02;;;;;;;;;;5105116;28;20475;-66
2023/12/05 12:04:35;;;;;;;22.23;10.65;;;;;;;;;;5106919;28;20126;-66
2023/12/05 12:07:03;;;;;;;20.08;10.73;;;;;;;;;;5108697;28;20052;-66
2023/12/05 12:09:37;;;;;;;23.48;11.77;;;;;;;;;;5104452;28;20494;-66
2023/12/05 12:12:04;;;;;;;25.38;11.95;;;;;;;;;;5103156;28;20493;-66
2023/12/05 12:14:32;;;;;;;21.08;11.23;;;;;;;;;;5107351;28;20063;-66
2023/12/05 12:17:00;;;;;;;23.63;10.90;;;;;;;;;;5109129;28;20055;-66
2023/12/05 12:19:27;;;;;;;23.27;11.23;;;;;;;;;;5110737;28;20050;-66
2023/12/05 12:21:55;;;;;;;20.50;11.00;;;;;;;;;;5111645;28;20584;-66
2023/12/05 12:24:23;;;;;;;21.45;11.40;;;;;;;;;;5110207;28;20047;-66
2023/12/05 12:26:55;;;;;;;21.27;10.50;;;;;;;;;;5110642;28;20067;-65
2023/12/05 12:29:22;;;;;;;21.00;10.93;;;;;;;;;;5111866;28;20059;-66
2023/12/05 12:31:52;;;;;;;22.65;11.27;;;;;;;;;;5109615;28;20044;-66
2023/12/05 12:34:24;;;;;;;21.17;10.40;;;;;;;;;;5111344;28;20043;-66
2023/12/05 12:36:52;;;;;;;20.50;10.80;;;;;;;;;;5107561;28;20048;-66
2023/12/05 12:39:20;;;;;;;22.92;11.75;;;;;;;;;;5104677;28;20048;-66
2023/12/05 12:41:48;;;;;;;23.45;10.73;;;;;;;;;;5106878;28;20515;-66
2023/12/05 12:44:17;;;;;;;21.92;10.95;;;;;;;;;;5101838;28;20474;-66
2023/12/05 12:46:45;;;;;;;22.30;11.55;;;;;;;;;;5109760;28;20458;-66
2023/12/05 12:49:12;;;;;;;21.80;10.77;;;;;;;;;;5104114;28;20414;-66
2023/12/05 12:51:40;;;;;;;24.40;11.55;;;;;;;;;;5108130;28;20680;-66
2023/12/05 12:54:08;;;;;;;23.42;11.30;;;;;;;;;;5102024;28;20394;-66
2023/12/05 12:56:36;;;;;;;22.05;11.00;;;;;;;;;;5108330;28;20399;-67
2023/12/05 12:59:04;;;;;;;23.90;11.32;;;;;;;;;;5104707;28;20064;-66
2023/12/05 13:01:33;;;;;;;26.48;12.05;;;;;;;;;;5108047;28;20052;-66
2023/12/05 13:04:01;;;;;;;29.13;13.60;;;;;;;;;;5111142;28;20058;-66
2023/12/05 13:06:35;;;;;;;22.02;11.68;;;;;;;;;;5106514;28;20040;-67
2023/12/05 13:09:02;;;;;;;24.38;12.20;;;;;;;;;;5108540;28;20054;-67
2023/12/05 13:11:30;;;;;;;24.73;13.00;;;;;;;;;;5091441;28;20130;-67
2023/12/05 13:13:57;;;;;;;25.85;12.63;;;;;;;;;;5113215;27;20055;-66
2023/12/05 13:16:24;;;;;;;26.23;12.23;;;;;;;;;;5104351;28;20059;-66
2023/12/05 13:18:53;;;;;;;25.38;12.05;;;;;;;;;;5106030;28;20060;-65
2023/12/05 13:21:31;;;;;;;23.83;11.68;;;;;;;;;;5103842;28;20127;-66
2023/12/05 13:23:59;;;;;;;24.55;11.60;;;;;;;;;;5109324;28;21133;-66
2023/12/05 13:26:26;;;;;;;23.55;12.75;;;;;;;;;;5091372;28;20054;-66
2023/12/05 13:28:54;;;;;;;24.02;12.35;;;;;;;;;;5107663;28;20379;-66
2023/12/05 13:31:21;;;;;;;28.67;12.90;;;;;;;;;;5109788;28;20050;-66
2023/12/05 13:33:48;;;;;;;27.10;12.93;;;;;;;;;;5109764;28;20047;-67
2023/12/05 13:36:17;;;;;;;27.60;12.55;;;;;;;;;;5104594;28;20387;-65
2023/12/05 13:38:44;;;;;;;25.67;12.88;;;;;;;;;;5084354;28;20105;-66
2023/12/05 13:41:11;;;;;;;26.15;12.57;;;;;;;;;;5111113;28;20052;-66
2023/12/05 13:43:39;;;;;;;27.38;13.20;;;;;;;;;;5109964;28;20040;-66
2023/12/05 13:46:07;;;;;;;24.33;12.50;;;;;;;;;;5109367;28;20066;-66
2023/12/05 13:48:34;;;;;;;32.20;13.82;;;;;;;;;;5104870;28;20047;-66
2023/12/05 13:51:03;;;;;;;29.23;13.77;;;;;;;;;;5104475;28;20044;-65
2023/12/05 13:53:31;;;;;;;29.13;14.43;;;;;;;;;;5109620;28;20055;-66
2023/12/05 13:55:59;;;;;;;29.35;13.63;;;;;;;;;;5102611;28;20051;-66
2023/12/05 13:58:26;;;;;;;30.63;14.23;;;;;;;;;;5105766;28;20444;-65
2023/12/05 14:00:53;;;;;;;30.70;13.68;;;;;;;;;;5107310;28;20522;-66
2023/12/05 14:03:21;;;;;;;30.50;13.90;;;;;;;;;;5106070;28;20040;-66
2023/12/05 14:05:48;;;;;;;30.88;14.32;;;;;;;;;;5108369;28;20058;-66
2023/12/05 14:08:15;;;;;;;25.58;13.25;;;;;;;;;;5107502;28;20057;-66
2023/12/05 14:10:44;;;;;;;27.73;13.45;;;;;;;;;;5108264;28;20039;-67
2023/12/05 14:13:11;;;;;;;29.92;14.50;;;;;;;;;;5109151;28;20055;-66
2023/12/05 14:15:38;;;;;;;30.17;13.13;;;;;;;;;;5109200;28;20047;-66
2023/12/05 14:18:08;;;;;;;29.90;13.80;;;;;;;;;;5105673;28;20055;-66
2023/12/05 14:20:35;;;;;;;31.67;14.15;;;;;;;;;;5108658;28;20051;-66
2023/12/05 14:23:02;;;;;;;29.63;13.13;;;;;;;;;;5110102;28;20142;-66
2023/12/05 14:25:30;;;;;;;35.50;13.77;;;;;;;;;;5108192;28;20406;-66